createdAt,value
2018-01-03T00:00:53.627Z,86.70
2018-01-03T00:03:21.218Z,86.70
2018-01-03T00:05:48.810Z,86.70
2018-01-03T00:08:17.154Z,86.80
2018-01-03T00:10:44.748Z,86.80
2018-01-03T00:13:12.327Z,86.40
2018-01-03T00:15:39.880Z,86.40
2018-01-03T00:18:07.454Z,86.00
2018-01-03T00:20:35.040Z,86.20
2018-01-03T00:23:02.610Z,86.30
2018-01-03T00:25:30.966Z,86.40
2018-01-03T00:27:58.538Z,86.40
2018-01-03T00:30:26.078Z,86.90
2018-01-03T00:32:53.679Z,87.00
2018-01-03T00:35:22.045Z,86.80
2018-01-03T00:37:49.585Z,86.90
2018-01-03T00:40:17.131Z,87.10
2018-01-03T00:42:44.715Z,87.10
2018-01-03T00:45:12.337Z,86.80
2018-01-03T00:47:40.633Z,87.20
2018-01-03T00:50:08.196Z,87.20
2018-01-03T00:52:35.985Z,87.20
2018-01-03T00:55:03.527Z,87.20
2018-01-03T00:57:31.078Z,87.30
2018-01-03T00:59:58.615Z,87.30
2018-01-03T01:02:26.147Z,87.40
2018-01-03T01:04:53.661Z,87.40
2018-01-03T01:07:21.951Z,87.50
2018-01-03T01:09:49.456Z,87.40
2018-01-03T01:12:17.743Z,87.80
2018-01-03T01:14:46.025Z,87.70
2018-01-03T01:17:13.559Z,87.60
2018-01-03T01:19:41.068Z,88.00
2018-01-03T01:22:08.675Z,88.20
2018-01-03T01:24:36.950Z,88.40
2018-01-03T01:27:04.475Z,88.40
2018-01-03T01:29:31.992Z,88.40
2018-01-03T01:31:59.528Z,88.60
2018-01-03T01:34:27.041Z,88.40
2018-01-03T01:36:54.572Z,88.70
2018-01-03T01:39:22.085Z,88.80
2018-01-03T01:41:49.617Z,88.90
2018-01-03T01:44:17.131Z,88.80
2018-01-03T01:46:44.657Z,89.20
2018-01-03T01:49:12.164Z,89.10
2018-01-03T01:51:39.705Z,89.30
2018-01-03T01:54:07.212Z,89.20
2018-01-03T01:56:34.846Z,89.20
2018-01-03T01:59:03.131Z,89.60
2018-01-03T02:01:31.427Z,89.60
2018-01-03T02:03:58.928Z,89.60
2018-01-03T02:06:27.223Z,89.80
2018-01-03T02:08:54.726Z,89.80
2018-01-03T02:11:23.009Z,89.90
2018-01-03T02:13:50.550Z,89.90
2018-01-03T02:16:18.055Z,89.60
2018-01-03T02:18:45.596Z,89.80
2018-01-03T02:21:13.867Z,89.90
2018-01-03T02:23:41.409Z,89.80
2018-01-03T02:26:08.929Z,89.90
2018-01-03T02:28:36.467Z,90.00
2018-01-03T02:31:03.974Z,89.80
2018-01-03T02:33:31.521Z,89.80
2018-01-03T02:35:59.032Z,90.00
2018-01-03T02:38:31.831Z,90.10
2018-01-03T02:41:00.103Z,90.20
2018-01-03T02:43:27.632Z,90.20
2018-01-03T02:45:55.912Z,90.30
2018-01-03T02:48:23.439Z,90.30
2018-01-03T02:50:50.956Z,90.40
2018-01-03T02:53:18.501Z,90.40
2018-01-03T02:55:46.865Z,90.40
2018-01-03T02:58:14.355Z,90.40
2018-01-03T03:00:41.863Z,90.40
2018-01-03T03:03:09.396Z,90.40
2018-01-03T03:05:36.896Z,90.50
2018-01-03T03:08:04.429Z,90.50
2018-01-03T03:10:32.703Z,90.80
2018-01-03T03:13:00.239Z,90.70
2018-01-03T03:15:27.762Z,90.80
2018-01-03T03:17:56.071Z,90.70
2018-01-03T03:20:23.577Z,90.90
2018-01-03T03:22:51.103Z,90.80
2018-01-03T03:25:18.622Z,90.80
2018-01-03T03:27:46.161Z,90.60
2018-01-03T03:30:13.676Z,90.80
2018-01-03T03:32:41.197Z,90.80
2018-01-03T03:35:08.722Z,90.80
2018-01-03T03:37:36.234Z,90.80
2018-01-03T03:40:03.781Z,90.80
2018-01-03T03:42:31.289Z,90.80
2018-01-03T03:44:58.815Z,90.80
2018-01-03T03:47:26.321Z,90.80
2018-01-03T03:49:53.852Z,90.80
2018-01-03T03:52:21.360Z,90.70
2018-01-03T03:54:48.888Z,90.60
2018-01-03T03:57:16.400Z,90.70
2018-01-03T03:59:43.932Z,90.70
2018-01-03T04:02:12.200Z,90.50
2018-01-03T04:04:39.731Z,90.50
2018-01-03T04:07:07.251Z,90.50
2018-01-03T04:09:34.780Z,90.50
2018-01-03T04:12:03.058Z,90.70
2018-01-03T04:14:30.583Z,90.70
2018-01-03T04:16:58.093Z,90.70
2018-01-03T04:19:25.618Z,90.70
2018-01-03T04:21:53.117Z,90.60
2018-01-03T04:24:21.409Z,90.50
2018-01-03T04:26:49.679Z,90.50
2018-01-03T04:29:17.208Z,90.40
2018-01-03T04:31:45.481Z,90.30
2018-01-03T04:34:13.005Z,90.30
2018-01-03T04:36:40.520Z,90.30
2018-01-03T04:39:08.061Z,90.30
2018-01-03T04:41:36.358Z,90.30
2018-01-03T04:44:04.666Z,90.30
2018-01-03T04:46:32.936Z,90.40
2018-01-03T04:49:00.440Z,90.40
2018-01-03T04:51:27.963Z,90.40
2018-01-03T04:53:55.469Z,90.50
2018-01-03T04:56:22.994Z,90.50
2018-01-03T04:58:51.285Z,90.60
2018-01-03T05:01:18.826Z,90.50
2018-01-03T05:03:46.341Z,90.50
2018-01-03T05:06:13.864Z,90.40
2018-01-03T05:08:42.137Z,89.50
2018-01-03T05:11:09.677Z,89.40
2018-01-03T05:13:37.195Z,89.50
2018-01-03T05:16:04.732Z,89.60
2018-01-03T05:18:32.250Z,89.70
2018-01-03T05:20:59.797Z,90.10
2018-01-03T05:23:27.314Z,91.20
2018-01-03T05:25:54.851Z,92.70
2018-01-03T05:28:23.134Z,92.60
2018-01-03T05:30:50.668Z,92.50
2018-01-03T05:33:18.174Z,92.60
2018-01-03T05:35:45.704Z,92.70
2018-01-03T05:38:13.977Z,92.70
2018-01-03T05:40:41.507Z,92.60
2018-01-03T05:43:09.019Z,92.60
2018-01-03T05:45:36.546Z,92.50
2018-01-03T05:48:04.824Z,92.20
2018-01-03T05:50:32.360Z,92.20
2018-01-03T05:52:59.878Z,92.20
2018-01-03T05:55:27.412Z,91.70
2018-01-03T05:57:55.696Z,91.40
2018-01-03T06:00:23.213Z,91.40
2018-01-03T06:02:50.754Z,91.10
2018-01-03T06:05:18.269Z,91.20
2018-01-03T06:07:46.578Z,90.90
2018-01-03T06:10:14.099Z,90.90
2018-01-03T06:12:41.645Z,90.80
2018-01-03T06:15:09.155Z,90.80
2018-01-03T06:17:36.721Z,90.50
2018-01-03T06:20:04.227Z,90.60
2018-01-03T06:22:31.759Z,90.80
2018-01-03T06:24:59.293Z,91.20
2018-01-03T06:27:26.823Z,91.30
2018-01-03T06:29:54.345Z,91.20
2018-01-03T06:32:21.882Z,91.10
2018-01-03T06:34:49.402Z,91.10
2018-01-03T06:37:16.931Z,91.20
2018-01-03T06:39:44.453Z,90.80
2018-01-03T06:42:12.748Z,90.70
2018-01-03T06:44:41.025Z,90.40
2018-01-03T06:47:08.578Z,90.40
2018-01-03T06:49:36.096Z,90.40
2018-01-03T06:52:03.637Z,90.40
2018-01-03T06:54:31.156Z,90.40
2018-01-03T06:56:58.691Z,90.50
2018-01-03T06:59:26.195Z,90.40
2018-01-03T07:01:53.728Z,90.40
2018-01-03T07:04:21.257Z,90.40
2018-01-03T07:06:48.788Z,89.80
2018-01-03T07:09:16.309Z,89.00
2018-01-03T07:11:43.855Z,88.90
2018-01-03T07:14:11.369Z,90.00
2018-01-03T07:16:39.644Z,94.00
2018-01-03T07:19:07.172Z,94.00
2018-01-03T07:21:34.696Z,95.40
2018-01-03T07:24:02.226Z,99.90
2018-01-03T07:26:29.728Z,99.90
2018-01-03T07:28:57.260Z,99.90
2018-01-03T07:31:24.773Z,99.90
2018-01-03T07:33:53.080Z,99.90
2018-01-03T07:36:20.600Z,99.90
2018-01-03T07:38:48.142Z,99.90
2018-01-03T07:41:16.450Z,99.90
2018-01-03T07:43:44.781Z,99.90
2018-01-03T07:46:12.320Z,99.90
2018-01-03T07:48:39.869Z,99.90
2018-01-03T07:51:07.406Z,99.90
2018-01-03T07:53:35.021Z,99.90
2018-01-03T07:56:02.544Z,99.90
2018-01-03T07:58:30.099Z,99.90
2018-01-03T08:00:57.626Z,99.90
2018-01-03T08:03:25.185Z,99.90
2018-01-03T08:05:52.725Z,99.90
2018-01-03T08:08:20.265Z,99.90
2018-01-03T08:10:47.800Z,99.90
2018-01-03T08:13:15.356Z,99.90
2018-01-03T08:15:42.878Z,99.90
2018-01-03T08:18:10.419Z,99.90
2018-01-03T08:20:37.939Z,99.90
2018-01-03T08:23:05.481Z,99.90
2018-01-03T08:25:32.997Z,99.90
2018-01-03T08:28:00.553Z,99.90
2018-01-03T08:30:28.070Z,99.90
2018-01-03T08:32:55.608Z,99.90
2018-01-03T08:35:23.137Z,99.90
2018-01-03T08:37:50.670Z,99.90
2018-01-03T08:40:18.229Z,99.90
2018-01-03T08:42:46.523Z,99.90
2018-01-03T08:45:14.079Z,99.90
2018-01-03T08:47:41.600Z,99.90
2018-01-03T08:50:09.915Z,99.90
2018-01-03T08:52:38.200Z,99.90
2018-01-03T08:55:05.736Z,99.90
2018-01-03T08:57:33.272Z,99.90
2018-01-03T09:00:01.589Z,99.90
2018-01-03T09:02:29.110Z,99.90
2018-01-03T09:04:56.660Z,99.90
2018-01-03T09:07:24.204Z,99.90
2018-01-03T09:09:51.772Z,99.90
2018-01-03T09:12:20.075Z,99.90
2018-01-03T09:14:47.629Z,99.90
2018-01-03T09:17:15.671Z,99.90
2018-01-03T09:19:43.220Z,99.90
2018-01-03T09:22:10.762Z,99.90
2018-01-03T09:24:39.070Z,99.90
2018-01-03T09:27:07.358Z,99.90
2018-01-03T09:29:35.015Z,99.90
2018-01-03T09:32:02.549Z,99.90
2018-01-03T09:34:30.102Z,99.90
2018-01-03T09:36:57.640Z,99.90
2018-01-03T09:39:25.196Z,99.90
2018-01-03T09:41:53.494Z,99.90
2018-01-03T09:44:21.801Z,99.90
2018-01-03T09:46:50.151Z,99.90
2018-01-03T09:49:17.688Z,99.90
2018-01-03T09:51:45.251Z,99.90
2018-01-03T09:54:12.786Z,99.90
2018-01-03T09:56:40.341Z,99.90
2018-01-03T09:59:07.880Z,97.60
2018-01-03T10:01:35.422Z,99.90
2018-01-03T10:04:03.692Z,97.40
2018-01-03T10:06:31.232Z,99.80
2018-01-03T10:08:59.518Z,95.10
2018-01-03T10:11:27.057Z,95.40
2018-01-03T10:13:54.594Z,96.40
2018-01-03T10:16:22.948Z,95.50
2018-01-03T10:18:50.451Z,95.50
2018-01-03T10:21:17.999Z,95.50
2018-01-03T10:23:45.535Z,94.60
2018-01-03T10:26:13.079Z,97.70
2018-01-03T10:28:40.613Z,97.00
2018-01-03T10:31:08.168Z,99.90
2018-01-03T10:33:35.713Z,99.90
2018-01-03T10:36:03.261Z,99.90
2018-01-03T10:38:30.799Z,97.40
2018-01-03T10:40:58.345Z,97.30
2018-01-03T10:43:26.644Z,94.40
2018-01-03T10:45:55.016Z,95.00
2018-01-03T10:48:22.534Z,95.00
2018-01-03T10:50:50.839Z,95.90
2018-01-03T10:53:19.143Z,95.20
2018-01-03T10:55:47.466Z,95.90
2018-01-03T10:58:15.029Z,95.90
2018-01-03T11:00:43.332Z,95.40
2018-01-03T11:03:11.648Z,94.30
2018-01-03T11:05:39.964Z,93.80
2018-01-03T11:08:07.507Z,93.80
2018-01-03T11:10:35.027Z,93.30
2018-01-03T11:13:02.574Z,93.10
2018-01-03T11:15:30.100Z,92.90
2018-01-03T11:17:57.656Z,92.40
2018-01-03T11:20:25.944Z,91.70
2018-01-03T11:22:53.494Z,91.70
2018-01-03T11:25:21.014Z,92.50
2018-01-03T11:27:48.567Z,92.00
2018-01-03T11:30:16.093Z,91.50
2018-01-03T11:32:44.406Z,91.10
2018-01-03T11:35:12.704Z,91.70
2018-01-03T11:37:41.019Z,91.70
2018-01-03T11:40:09.312Z,92.10
2018-01-03T11:42:37.636Z,91.10
2018-01-03T11:45:05.158Z,91.10
2018-01-03T11:47:32.712Z,91.30
2018-01-03T11:50:00.249Z,90.40
2018-01-03T11:52:27.790Z,90.20
2018-01-03T11:54:55.312Z,86.90
2018-01-03T11:57:22.859Z,85.70
2018-01-03T11:59:50.400Z,86.50
2018-01-03T12:02:18.708Z,85.50
2018-01-03T12:04:47.023Z,85.20
2018-01-03T12:07:15.424Z,85.20
2018-01-03T12:09:43.716Z,86.10
2018-01-03T12:12:11.300Z,85.80
2018-01-03T12:14:45.457Z,85.80
2018-01-03T12:17:12.981Z,85.60
2018-01-03T12:19:40.485Z,86.30
2018-01-03T12:22:08.016Z,88.40
2018-01-03T12:24:35.547Z,88.00
2018-01-03T12:27:03.098Z,87.40
2018-01-03T12:29:31.417Z,87.00
2018-01-03T12:31:59.658Z,86.80
2018-01-03T12:34:27.199Z,86.80
2018-01-03T12:36:55.582Z,83.80
2018-01-03T12:39:23.108Z,83.70
2018-01-03T12:41:50.639Z,83.20
2018-01-03T12:44:18.183Z,82.40
2018-01-03T12:46:45.758Z,81.70
2018-01-03T12:49:13.327Z,80.90
2018-01-03T12:51:41.634Z,79.60
2018-01-03T12:54:09.919Z,79.10
2018-01-03T12:56:37.439Z,79.20
2018-01-03T12:59:05.023Z,79.40
2018-01-03T13:01:32.545Z,80.50
2018-01-03T13:04:00.067Z,81.00
2018-01-03T13:06:28.331Z,82.80
2018-01-03T13:08:55.891Z,82.40
2018-01-03T13:11:23.427Z,82.60
2018-01-03T13:13:50.962Z,82.90
2018-01-03T13:16:18.482Z,82.80
2018-01-03T13:18:46.027Z,84.20
2018-01-03T13:21:13.698Z,86.30
2018-01-03T13:23:42.036Z,88.40
2018-01-03T13:26:09.557Z,87.80
2018-01-03T13:28:37.169Z,89.80
2018-01-03T13:31:05.478Z,90.00
2018-01-03T13:33:33.789Z,89.00
2018-01-03T13:36:01.323Z,89.00
2018-01-03T13:38:28.969Z,90.00
2018-01-03T13:40:57.343Z,89.50
2018-01-03T13:43:25.641Z,89.50
2018-01-03T13:45:53.168Z,89.80
2018-01-03T13:48:20.705Z,87.30
2018-01-03T13:50:48.294Z,83.50
2018-01-03T13:53:15.815Z,83.10
2018-01-03T13:55:44.122Z,81.70
2018-01-03T13:58:12.411Z,81.30
2018-01-03T14:00:39.955Z,81.40
2018-01-03T14:03:07.486Z,77.60
2018-01-03T14:05:35.085Z,75.90
2018-01-03T14:08:02.601Z,75.80
2018-01-03T14:10:30.153Z,75.90
2018-01-03T14:12:58.470Z,74.60
2018-01-03T14:15:26.024Z,74.70
2018-01-03T14:17:54.310Z,73.30
2018-01-03T14:20:21.850Z,73.30
2018-01-03T14:22:49.366Z,73.30
2018-01-03T14:25:16.905Z,73.80
2018-01-03T14:27:44.416Z,73.30
2018-01-03T14:30:11.938Z,72.20
2018-01-03T14:32:39.453Z,72.20
2018-01-03T14:35:06.984Z,71.80
2018-01-03T14:37:34.503Z,73.30
2018-01-03T14:40:02.055Z,72.40
2018-01-03T14:42:29.599Z,71.80
2018-01-03T14:44:57.952Z,71.90
2018-01-03T14:47:25.475Z,72.50
2018-01-03T14:49:53.772Z,71.10
2018-01-03T14:52:22.106Z,71.40
2018-01-03T14:54:49.607Z,71.40
2018-01-03T14:57:17.137Z,71.00
2018-01-03T14:59:44.640Z,71.30
2018-01-03T15:02:12.942Z,71.30
2018-01-03T15:04:41.226Z,71.40
2018-01-03T15:07:08.766Z,71.40
2018-01-03T15:09:36.280Z,72.00
2018-01-03T15:12:03.799Z,72.30
2018-01-03T15:14:31.312Z,74.60
2018-01-03T15:16:58.845Z,75.20
2018-01-03T15:19:26.384Z,75.60
2018-01-03T15:21:53.912Z,75.60
2018-01-03T15:24:21.425Z,74.70
2018-01-03T15:26:48.973Z,74.20
2018-01-03T15:29:16.543Z,74.20
2018-01-03T15:31:44.084Z,73.90
2018-01-03T15:34:11.598Z,74.00
2018-01-03T15:36:39.149Z,73.10
2018-01-03T15:39:06.665Z,73.70
2018-01-03T15:41:34.248Z,73.00
2018-01-03T15:44:01.768Z,73.20
2018-01-03T15:46:30.077Z,73.10
2018-01-03T15:48:57.602Z,73.10
2018-01-03T15:51:25.137Z,73.20
2018-01-03T15:53:52.656Z,73.10
2018-01-03T15:56:20.195Z,73.20
2018-01-03T15:58:47.695Z,74.70
2018-01-03T16:01:15.235Z,75.80
2018-01-03T16:03:42.749Z,76.20
2018-01-03T16:06:10.284Z,76.10
2018-01-03T16:08:37.798Z,77.00
2018-01-03T16:11:05.315Z,77.30
2018-01-03T16:13:32.839Z,78.80
2018-01-03T16:16:00.347Z,80.10
2018-01-03T16:18:27.875Z,80.00
2018-01-03T16:20:56.143Z,81.10
2018-01-03T16:23:23.680Z,81.10
2018-01-03T16:25:51.179Z,81.10
2018-01-03T16:28:18.718Z,81.30
2018-01-03T16:30:46.234Z,81.10
2018-01-03T16:33:14.542Z,81.80
2018-01-03T16:35:42.123Z,81.70
2018-01-03T16:38:09.652Z,81.10
2018-01-03T16:40:37.167Z,79.90
2018-01-03T16:43:04.760Z,79.20
2018-01-03T16:45:32.240Z,78.20
2018-01-03T16:48:00.550Z,77.90
2018-01-03T16:50:28.892Z,77.30
2018-01-03T16:53:02.228Z,77.20
2018-01-03T16:55:29.750Z,76.40
2018-01-03T16:57:58.176Z,75.30
2018-01-03T17:00:25.687Z,75.30
2018-01-03T17:02:53.258Z,75.40
2018-01-03T17:05:20.848Z,74.60
2018-01-03T17:07:48.375Z,74.30
2018-01-03T17:10:15.891Z,73.60
2018-01-03T17:12:44.189Z,72.80
2018-01-03T17:15:11.743Z,72.80
2018-01-03T17:17:39.336Z,73.50
2018-01-03T17:20:06.881Z,72.80
2018-01-03T17:22:34.385Z,72.80
2018-01-03T17:25:03.127Z,71.90
2018-01-03T17:27:30.639Z,71.50
2018-01-03T17:29:58.929Z,71.40
2018-01-03T17:32:27.203Z,71.80
2018-01-03T17:34:54.736Z,71.80
2018-01-03T17:37:22.304Z,71.70
2018-01-03T17:39:50.646Z,71.20
2018-01-03T17:42:18.203Z,71.10
2018-01-03T17:44:46.487Z,71.90
2018-01-03T17:47:14.002Z,71.90
2018-01-03T17:49:41.566Z,72.10
2018-01-03T17:52:09.892Z,71.50
2018-01-03T17:54:37.480Z,71.60
2018-01-03T17:57:05.007Z,72.50
2018-01-03T17:59:32.583Z,72.20
2018-01-03T18:02:00.143Z,71.50
2018-01-03T18:04:27.712Z,71.60
2018-01-03T18:06:55.272Z,72.00
2018-01-03T18:09:23.627Z,72.00
2018-01-03T18:11:51.147Z,71.80
2018-01-03T18:14:18.726Z,72.30
2018-01-03T18:16:46.278Z,72.80
2018-01-03T18:19:13.800Z,72.80
2018-01-03T18:21:41.373Z,72.80
2018-01-03T18:24:08.962Z,72.30
2018-01-03T18:26:36.517Z,72.80
2018-01-03T18:29:04.049Z,72.80
2018-01-03T18:31:31.612Z,72.80
2018-01-03T18:33:59.136Z,72.20
2018-01-03T18:36:27.420Z,72.70
2018-01-03T18:38:55.064Z,72.70
2018-01-03T18:41:22.649Z,72.70
2018-01-03T18:43:50.216Z,72.70
2018-01-03T18:46:17.808Z,72.70
2018-01-03T18:48:45.378Z,72.80
2018-01-03T18:51:13.722Z,72.80
2018-01-03T18:53:41.293Z,72.80
2018-01-03T18:56:08.888Z,72.80
2018-01-03T18:58:36.448Z,72.70
2018-01-03T19:01:04.809Z,72.60
2018-01-03T19:03:32.392Z,72.60
2018-01-03T19:05:59.978Z,72.60
2018-01-03T19:08:27.545Z,72.50
2018-01-03T19:10:55.123Z,72.50
2018-01-03T19:13:22.666Z,73.10
2018-01-03T19:15:51.010Z,73.00
2018-01-03T19:18:18.581Z,73.00
2018-01-03T19:20:46.169Z,73.50
2018-01-03T19:23:13.713Z,74.30
2018-01-03T19:25:41.306Z,73.30
2018-01-03T19:28:09.642Z,73.10
2018-01-03T19:30:37.219Z,73.10
2018-01-03T19:33:04.788Z,72.60
2018-01-03T19:35:33.131Z,72.70
2018-01-03T19:38:00.792Z,72.70
2018-01-03T19:40:28.377Z,72.70
2018-01-03T19:42:55.983Z,73.70
2018-01-03T19:45:23.562Z,73.80
2018-01-03T19:47:51.124Z,74.10
2018-01-03T19:50:19.468Z,72.70
2018-01-03T19:52:47.042Z,72.70
2018-01-03T19:55:14.624Z,72.60
2018-01-03T19:57:42.185Z,73.50
2018-01-03T20:00:10.651Z,76.40
2018-01-03T20:02:38.220Z,76.40
2018-01-03T20:05:05.800Z,76.40
2018-01-03T20:07:33.350Z,76.40
2018-01-03T20:10:00.934Z,75.60
2018-01-03T20:12:28.520Z,75.90
2018-01-03T20:14:56.119Z,73.40
2018-01-03T20:17:23.688Z,72.70
2018-01-03T20:19:51.242Z,72.70
2018-01-03T20:22:18.822Z,72.70
2018-01-03T20:24:46.379Z,72.70
2018-01-03T20:27:13.951Z,72.60
2018-01-03T20:29:41.508Z,72.10
2018-01-03T20:32:09.867Z,72.30
2018-01-03T20:34:37.418Z,72.20
2018-01-03T20:37:04.977Z,71.90
2018-01-03T20:39:33.301Z,72.80
2018-01-03T20:42:00.885Z,72.80
2018-01-03T20:44:28.442Z,72.80
2018-01-03T20:46:56.797Z,72.90
2018-01-03T20:49:24.352Z,72.90
2018-01-03T20:51:51.940Z,72.90
2018-01-03T20:54:19.496Z,72.90
2018-01-03T20:56:47.075Z,72.40
2018-01-03T20:59:15.484Z,72.90
2018-01-03T21:01:43.850Z,72.90
2018-01-03T21:04:11.432Z,72.50
2018-01-03T21:06:39.038Z,73.00
2018-01-03T21:09:06.601Z,73.00
2018-01-03T21:11:34.250Z,73.00
2018-01-03T21:14:02.590Z,72.90
2018-01-03T21:16:30.167Z,72.90
2018-01-03T21:18:58.656Z,72.90
2018-01-03T21:21:26.258Z,72.90
2018-01-03T21:23:53.813Z,72.90
2018-01-03T21:26:22.158Z,72.90
2018-01-03T21:28:49.720Z,72.90
2018-01-03T21:31:17.315Z,72.30
2018-01-03T21:33:44.886Z,72.10
2018-01-03T21:36:12.464Z,72.60
2018-01-03T21:38:40.790Z,72.20
2018-01-03T21:41:08.391Z,72.10
2018-01-03T21:43:35.973Z,71.90
2018-01-03T21:46:03.536Z,71.50
2018-01-03T21:48:31.132Z,72.40
2018-01-03T21:50:58.705Z,72.60
2018-01-03T21:53:26.294Z,72.40
2018-01-03T21:55:53.854Z,72.90
2018-01-03T21:58:21.423Z,72.80
2018-01-03T22:00:48.978Z,73.70
2018-01-03T22:03:16.556Z,72.80
2018-01-03T22:05:44.116Z,72.30
2018-01-03T22:08:11.704Z,72.80
2018-01-03T22:10:40.034Z,72.80
2018-01-03T22:13:07.617Z,72.80
2018-01-03T22:15:35.943Z,72.70
2018-01-03T22:18:03.539Z,72.80
2018-01-03T22:20:32.026Z,73.40
2018-01-03T22:22:59.611Z,74.00
2018-01-03T22:25:27.952Z,74.20
2018-01-03T22:27:55.564Z,74.70
2018-01-03T22:30:23.133Z,74.60
2018-01-03T22:32:50.706Z,74.80
2018-01-03T22:35:18.248Z,74.60
2018-01-03T22:37:45.837Z,74.50
2018-01-03T22:40:13.401Z,74.80
2018-01-03T22:42:40.967Z,75.00
2018-01-03T22:45:09.287Z,75.90
2018-01-03T22:47:36.882Z,75.90
2018-01-03T22:50:04.435Z,76.50
2018-01-03T22:52:31.991Z,76.40
2018-01-03T22:55:00.390Z,77.60
2018-01-03T22:57:27.950Z,77.60
2018-01-03T22:59:55.546Z,77.80
2018-01-03T23:02:23.095Z,78.00
2018-01-03T23:04:50.705Z,78.40
2018-01-03T23:07:18.280Z,78.60
2018-01-03T23:09:45.864Z,78.40
2018-01-03T23:12:14.193Z,78.20
2018-01-03T23:14:41.773Z,78.20
2018-01-03T23:17:10.091Z,77.70
2018-01-03T23:19:38.611Z,77.60
2018-01-03T23:25:05.162Z,76.80
2018-01-03T23:27:33.492Z,76.40
2018-01-03T23:30:01.143Z,76.40
2018-01-03T23:32:30.479Z,76.90
2018-01-03T23:34:59.400Z,76.70
2018-01-03T23:37:27.997Z,76.60
2018-01-03T23:39:55.568Z,77.00
2018-01-03T23:42:23.129Z,76.90
2018-01-03T23:44:51.471Z,77.00
2018-01-03T23:47:19.040Z,77.00
2018-01-03T23:49:46.626Z,76.90
2018-01-03T23:52:14.184Z,77.00
2018-01-03T23:54:42.638Z,77.60
2018-01-03T23:57:10.914Z,77.10
2018-01-03T23:59:38.503Z,77.00
